sensor_id;sensor_type;location;lat;lon;timestamp;pressure;altitude;pressure_sealevel;temperature;humidity
71772;BME280;59606;52.138;5.424;2023-06-14T00:02:21;101587.53;;;20.44;43.97
71772;BME280;59606;52.138;5.424;2023-06-14T00:04:47;101595.72;;;20.41;44.27
71772;BME280;59606;52.138;5.424;2023-06-14T00:07:14;101592.50;;;20.37;44.81
71772;BME280;59606;52.138;5.424;2023-06-14T00:09:43;101589.28;;;20.34;44.52
71772;BME280;59606;52.138;5.424;2023-06-14T00:12:09;101593.84;;;20.32;44.27
71772;BME280;59606;52.138;5.424;2023-06-14T00:14:36;101591.34;;;20.30;44.43
71772;BME280;59606;52.138;5.424;2023-06-14T00:17:03;101593.00;;;20.31;44.29
71772;BME280;59606;52.138;5.424;2023-06-14T00:19:29;101591.72;;;20.25;44.44
71772;BME280;59606;52.138;5.424;2023-06-14T00:21:59;101593.75;;;20.22;44.95
71772;BME280;59606;52.138;5.424;2023-06-14T00:24:25;101600.28;;;20.18;44.45
71772;BME280;59606;52.138;5.424;2023-06-14T00:26:52;101593.19;;;20.18;45.02
71772;BME280;59606;52.138;5.424;2023-06-14T00:29:19;101603.06;;;20.16;44.91
71772;BME280;59606;52.138;5.424;2023-06-14T00:31:45;101605.13;;;20.13;44.59
71772;BME280;59606;52.138;5.424;2023-06-14T00:34:12;101605.50;;;20.08;45.01
71772;BME280;59606;52.138;5.424;2023-06-14T00:36:38;101599.53;;;20.06;44.66
71772;BME280;59606;52.138;5.424;2023-06-14T00:39:05;101601.19;;;20.07;44.45
71772;BME280;59606;52.138;5.424;2023-06-14T00:41:31;101597.13;;;20.03;44.38
71772;BME280;59606;52.138;5.424;2023-06-14T00:43:58;101597.22;;;20.01;44.86
71772;BME280;59606;52.138;5.424;2023-06-14T00:46:26;101598.47;;;19.97;44.98
71772;BME280;59606;52.138;5.424;2023-06-14T00:48:53;101606.53;;;19.96;45.14
71772;BME280;59606;52.138;5.424;2023-06-14T00:51:22;101605.09;;;19.92;45.24
71772;BME280;59606;52.138;5.424;2023-06-14T00:53:48;101604.25;;;19.91;45.15
71772;BME280;59606;52.138;5.424;2023-06-14T00:56:15;101594.91;;;19.87;45.12
71772;BME280;59606;52.138;5.424;2023-06-14T00:58:42;101597.94;;;19.83;45.46
71772;BME280;59606;52.138;5.424;2023-06-14T01:01:09;101602.75;;;19.77;45.23
71772;BME280;59606;52.138;5.424;2023-06-14T01:03:36;101600.47;;;19.73;45.29
71772;BME280;59606;52.138;5.424;2023-06-14T01:11:22;101603.97;;;19.62;45.50
71772;BME280;59606;52.138;5.424;2023-06-14T01:13:51;101604.31;;;19.58;45.52
71772;BME280;59606;52.138;5.424;2023-06-14T01:16:19;101602.91;;;19.53;45.78
71772;BME280;59606;52.138;5.424;2023-06-14T01:18:46;101595.09;;;19.52;45.70
71772;BME280;59606;52.138;5.424;2023-06-14T01:21:25;101590.06;;;19.49;45.45
71772;BME280;59606;52.138;5.424;2023-06-14T01:23:52;101599.06;;;19.46;45.75
71772;BME280;59606;52.138;5.424;2023-06-14T01:26:23;101603.88;;;19.41;45.99
71772;BME280;59606;52.138;5.424;2023-06-14T01:28:50;101600.88;;;19.35;46.15
71772;BME280;59606;52.138;5.424;2023-06-14T01:31:20;101591.41;;;19.32;45.93
71772;BME280;59606;52.138;5.424;2023-06-14T01:33:49;101597.63;;;19.31;46.66
71772;BME280;59606;52.138;5.424;2023-06-14T01:36:19;101600.66;;;19.26;46.54
71772;BME280;59606;52.138;5.424;2023-06-14T01:38:47;101599.09;;;19.24;45.89
71772;BME280;59606;52.138;5.424;2023-06-14T01:41:17;101596.00;;;19.19;46.42
71772;BME280;59606;52.138;5.424;2023-06-14T01:43:45;101605.97;;;19.15;46.71
71772;BME280;59606;52.138;5.424;2023-06-14T01:46:14;101607.16;;;19.11;46.43
71772;BME280;59606;52.138;5.424;2023-06-14T01:48:41;101603.91;;;19.07;46.58
71772;BME280;59606;52.138;5.424;2023-06-14T01:51:07;101602.38;;;19.05;46.91
71772;BME280;59606;52.138;5.424;2023-06-14T01:53:34;101601.78;;;19.01;46.66
71772;BME280;59606;52.138;5.424;2023-06-14T01:56:01;101602.84;;;18.99;46.61
71772;BME280;59606;52.138;5.424;2023-06-14T01:58:27;101601.13;;;18.98;46.68
71772;BME280;59606;52.138;5.424;2023-06-14T02:00:54;101605.97;;;18.93;47.40
71772;BME280;59606;52.138;5.424;2023-06-14T02:03:24;101604.38;;;18.90;47.19
71772;BME280;59606;52.138;5.424;2023-06-14T02:05:51;101604.75;;;18.86;47.32
71772;BME280;59606;52.138;5.424;2023-06-14T02:08:18;101599.13;;;18.79;48.18
71772;BME280;59606;52.138;5.424;2023-06-14T02:10:45;101602.94;;;18.75;47.27
71772;BME280;59606;52.138;5.424;2023-06-14T02:13:11;101598.22;;;18.67;47.79
71772;BME280;59606;52.138;5.424;2023-06-14T02:15:38;101601.09;;;18.64;48.40
71772;BME280;59606;52.138;5.424;2023-06-14T02:18:05;101595.44;;;18.57;48.40
71772;BME280;59606;52.138;5.424;2023-06-14T02:20:31;101606.50;;;18.51;49.09
71772;BME280;59606;52.138;5.424;2023-06-14T02:22:58;101595.56;;;18.45;48.98
71772;BME280;59606;52.138;5.424;2023-06-14T02:25:24;101604.75;;;18.39;48.96
71772;BME280;59606;52.138;5.424;2023-06-14T02:27:54;101607.63;;;18.36;49.62
71772;BME280;59606;52.138;5.424;2023-06-14T02:30:21;101606.06;;;18.33;48.89
71772;BME280;59606;52.138;5.424;2023-06-14T02:32:48;101601.00;;;18.30;50.19
71772;BME280;59606;52.138;5.424;2023-06-14T02:35:15;101609.28;;;18.26;49.81
71772;BME280;59606;52.138;5.424;2023-06-14T02:37:41;101609.88;;;18.18;50.11
71772;BME280;59606;52.138;5.424;2023-06-14T02:40:09;101614.53;;;18.14;49.97
71772;BME280;59606;52.138;5.424;2023-06-14T02:42:35;101615.59;;;18.12;49.90
71772;BME280;59606;52.138;5.424;2023-06-14T02:45:02;101614.13;;;18.08;50.44
71772;BME280;59606;52.138;5.424;2023-06-14T02:47:30;101614.47;;;18.03;50.10
71772;BME280;59606;52.138;5.424;2023-06-14T02:49:57;101622.81;;;17.97;50.31
71772;BME280;59606;52.138;5.424;2023-06-14T02:52:23;101619.69;;;17.92;50.95
71772;BME280;59606;52.138;5.424;2023-06-14T02:54:51;101622.16;;;17.82;51.45
71772;BME280;59606;52.138;5.424;2023-06-14T02:57:18;101620.06;;;17.75;52.19
71772;BME280;59606;52.138;5.424;2023-06-14T02:59:44;101632.72;;;17.70;52.20
71772;BME280;59606;52.138;5.424;2023-06-14T03:02:11;101628.63;;;17.65;52.21
71772;BME280;59606;52.138;5.424;2023-06-14T03:04:37;101631.38;;;17.64;52.17
71772;BME280;59606;52.138;5.424;2023-06-14T03:07:04;101630.84;;;17.59;52.09
71772;BME280;59606;52.138;5.424;2023-06-14T03:09:38;101639.09;;;17.54;52.43
71772;BME280;59606;52.138;5.424;2023-06-14T03:12:06;101643.84;;;17.49;52.19
71772;BME280;59606;52.138;5.424;2023-06-14T03:14:33;101640.59;;;17.46;51.78
71772;BME280;59606;52.138;5.424;2023-06-14T03:17:01;101641.34;;;17.48;51.28
71772;BME280;59606;52.138;5.424;2023-06-14T03:19:28;101643.97;;;17.48;51.87
71772;BME280;59606;52.138;5.424;2023-06-14T03:21:55;101641.84;;;17.40;52.01
71772;BME280;59606;52.138;5.424;2023-06-14T03:24:24;101647.59;;;17.34;52.27
71772;BME280;59606;52.138;5.424;2023-06-14T03:26:51;101643.25;;;17.33;52.18
71772;BME280;59606;52.138;5.424;2023-06-14T03:29:17;101647.59;;;17.34;51.75
71772;BME280;59606;52.138;5.424;2023-06-14T03:32:00;101654.63;;;17.33;51.91
71772;BME280;59606;52.138;5.424;2023-06-14T03:34:28;101648.72;;;17.30;52.33
71772;BME280;59606;52.138;5.424;2023-06-14T03:36:55;101648.94;;;17.27;51.89
71772;BME280;59606;52.138;5.424;2023-06-14T03:39:21;101650.63;;;17.28;52.38
71772;BME280;59606;52.138;5.424;2023-06-14T03:41:48;101648.09;;;17.26;52.51
71772;BME280;59606;52.138;5.424;2023-06-14T03:44:17;101657.91;;;17.24;51.95
71772;BME280;59606;52.138;5.424;2023-06-14T03:46:45;101651.69;;;17.25;52.17
71772;BME280;59606;52.138;5.424;2023-06-14T03:49:12;101658.00;;;17.23;52.68
71772;BME280;59606;52.138;5.424;2023-06-14T03:51:39;101653.78;;;17.20;52.47
71772;BME280;59606;52.138;5.424;2023-06-14T03:54:07;101660.00;;;17.19;52.53
71772;BME280;59606;52.138;5.424;2023-06-14T03:56:53;101666.25;;;17.18;52.56
71772;BME280;59606;52.138;5.424;2023-06-14T03:59:20;101670.66;;;17.17;52.60
71772;BME280;59606;52.138;5.424;2023-06-14T04:01:47;101662.97;;;17.14;52.93
71772;BME280;59606;52.138;5.424;2023-06-14T04:04:15;101669.16;;;17.13;52.75
71772;BME280;59606;52.138;5.424;2023-06-14T04:06:45;101674.56;;;17.12;53.02
71772;BME280;59606;52.138;5.424;2023-06-14T04:09:14;101678.16;;;17.11;53.40
71772;BME280;59606;52.138;5.424;2023-06-14T04:11:41;101685.22;;;17.10;53.53
71772;BME280;59606;52.138;5.424;2023-06-14T04:14:07;101681.50;;;17.13;53.51
71772;BME280;59606;52.138;5.424;2023-06-14T04:16:34;101685.84;;;17.14;53.59
71772;BME280;59606;52.138;5.424;2023-06-14T04:19:01;101689.19;;;17.16;53.64
71772;BME280;59606;52.138;5.424;2023-06-14T04:21:27;101683.91;;;17.16;53.77
71772;BME280;59606;52.138;5.424;2023-06-14T04:23:55;101684.66;;;17.18;53.32
71772;BME280;59606;52.138;5.424;2023-06-14T04:26:22;101689.81;;;17.19;53.51
71772;BME280;59606;52.138;5.424;2023-06-14T04:28:52;101693.41;;;17.18;54.01
71772;BME280;59606;52.138;5.424;2023-06-14T04:31:19;101690.91;;;17.17;53.46
71772;BME280;59606;52.138;5.424;2023-06-14T04:33:47;101691.63;;;17.19;54.21
71772;BME280;59606;52.138;5.424;2023-06-14T04:36:17;101695.84;;;17.22;53.85
71772;BME280;59606;52.138;5.424;2023-06-14T04:38:44;101700.25;;;17.21;53.41
71772;BME280;59606;52.138;5.424;2023-06-14T04:41:15;101693.19;;;17.22;53.92
71772;BME280;59606;52.138;5.424;2023-06-14T04:43:42;101695.63;;;17.25;53.71
71772;BME280;59606;52.138;5.424;2023-06-14T04:46:09;101697.94;;;17.29;53.28
71772;BME280;59606;52.138;5.424;2023-06-14T04:48:40;101699.31;;;17.35;53.71
71772;BME280;59606;52.138;5.424;2023-06-14T04:51:09;101705.06;;;17.40;54.36
71772;BME280;59606;52.138;5.424;2023-06-14T04:53:35;101704.44;;;17.49;53.61
71772;BME280;59606;52.138;5.424;2023-06-14T04:56:03;101704.09;;;17.54;54.01
71772;BME280;59606;52.138;5.424;2023-06-14T04:58:30;101706.03;;;17.52;53.28
71772;BME280;59606;52.138;5.424;2023-06-14T05:00:57;101708.13;;;17.59;53.77
71772;BME280;59606;52.138;5.424;2023-06-14T05:03:26;101713.78;;;17.66;53.29
71772;BME280;59606;52.138;5.424;2023-06-14T05:05:54;101720.31;;;17.73;53.80
71772;BME280;59606;52.138;5.424;2023-06-14T05:08:21;101711.91;;;17.81;53.11
71772;BME280;59606;52.138;5.424;2023-06-14T05:10:52;101715.66;;;17.89;53.08
71772;BME280;59606;52.138;5.424;2023-06-14T05:13:18;101713.56;;;17.95;53.36
71772;BME280;59606;52.138;5.424;2023-06-14T05:15:45;101716.59;;;18.01;53.59
71772;BME280;59606;52.138;5.424;2023-06-14T05:18:11;101717.00;;;18.08;53.16
71772;BME280;59606;52.138;5.424;2023-06-14T05:20:40;101720.13;;;18.13;52.78
71772;BME280;59606;52.138;5.424;2023-06-14T05:23:09;101719.81;;;18.18;52.66
71772;BME280;59606;52.138;5.424;2023-06-14T05:25:45;101725.47;;;18.24;52.76
71772;BME280;59606;52.138;5.424;2023-06-14T05:28:12;101722.59;;;18.27;52.87
71772;BME280;59606;52.138;5.424;2023-06-14T05:30:39;101720.91;;;18.26;52.72
71772;BME280;59606;52.138;5.424;2023-06-14T05:33:08;101725.13;;;18.29;53.09
71772;BME280;59606;52.138;5.424;2023-06-14T05:35:35;101722.53;;;18.40;53.07
71772;BME280;59606;52.138;5.424;2023-06-14T05:38:02;101725.56;;;18.47;53.20
71772;BME280;59606;52.138;5.424;2023-06-14T05:40:28;101731.44;;;18.50;52.71
71772;BME280;59606;52.138;5.424;2023-06-14T05:42:55;101729.59;;;18.64;52.69
71772;BME280;59606;52.138;5.424;2023-06-14T05:45:22;101730.50;;;18.75;52.48
71772;BME280;59606;52.138;5.424;2023-06-14T05:47:48;101729.34;;;18.91;52.04
71772;BME280;59606;52.138;5.424;2023-06-14T05:50:15;101728.16;;;18.95;51.00
71772;BME280;59606;52.138;5.424;2023-06-14T05:52:41;101733.81;;;19.01;50.16
71772;BME280;59606;52.138;5.424;2023-06-14T05:55:08;101735.03;;;19.08;50.09
71772;BME280;59606;52.138;5.424;2023-06-14T05:57:35;101735.28;;;19.17;50.59
71772;BME280;59606;52.138;5.424;2023-06-14T06:00:02;101737.44;;;19.34;49.64
71772;BME280;59606;52.138;5.424;2023-06-14T06:02:36;101737.81;;;19.41;49.68
71772;BME280;59606;52.138;5.424;2023-06-14T06:05:03;101740.72;;;19.49;50.84
71772;BME280;59606;52.138;5.424;2023-06-14T06:07:29;101740.50;;;19.63;49.21
71772;BME280;59606;52.138;5.424;2023-06-14T06:09:56;101744.81;;;19.75;48.96
71772;BME280;59606;52.138;5.424;2023-06-14T06:12:22;101745.88;;;19.95;48.07
71772;BME280;59606;52.138;5.424;2023-06-14T06:14:49;101750.41;;;20.16;47.01
71772;BME280;59606;52.138;5.424;2023-06-14T06:17:15;101752.47;;;20.44;46.66
71772;BME280;59606;52.138;5.424;2023-06-14T06:19:42;101750.22;;;20.72;46.90
71772;BME280;59606;52.138;5.424;2023-06-14T06:22:08;101749.34;;;21.04;45.81
71772;BME280;59606;52.138;5.424;2023-06-14T06:24:35;101745.19;;;21.11;44.87
71772;BME280;59606;52.138;5.424;2023-06-14T06:27:02;101751.25;;;21.02;44.80
71772;BME280;59606;52.138;5.424;2023-06-14T06:29:28;101747.03;;;20.89;45.98
71772;BME280;59606;52.138;5.424;2023-06-14T06:31:55;101747.19;;;20.77;46.03
71772;BME280;59606;52.138;5.424;2023-06-14T06:34:22;101758.09;;;20.62;45.82
71772;BME280;59606;52.138;5.424;2023-06-14T06:36:49;101748.84;;;20.45;45.33
71772;BME280;59606;52.138;5.424;2023-06-14T06:39:15;101754.28;;;20.44;47.09
71772;BME280;59606;52.138;5.424;2023-06-14T06:41:42;101765.00;;;20.42;46.29
71772;BME280;59606;52.138;5.424;2023-06-14T06:44:08;101770.56;;;20.39;45.94
71772;BME280;59606;52.138;5.424;2023-06-14T06:46:39;101763.19;;;20.43;46.92
71772;BME280;59606;52.138;5.424;2023-06-14T06:49:07;101766.28;;;20.48;47.60
71772;BME280;59606;52.138;5.424;2023-06-14T06:51:35;101769.09;;;20.46;50.83
71772;BME280;59606;52.138;5.424;2023-06-14T06:54:02;101770.53;;;20.51;48.50
71772;BME280;59606;52.138;5.424;2023-06-14T06:56:29;101771.13;;;20.54;48.54
71772;BME280;59606;52.138;5.424;2023-06-14T06:58:55;101768.94;;;20.59;48.94
71772;BME280;59606;52.138;5.424;2023-06-14T07:01:22;101775.78;;;20.62;48.34
71772;BME280;59606;52.138;5.424;2023-06-14T07:03:50;101771.66;;;20.69;51.44
71772;BME280;59606;52.138;5.424;2023-06-14T07:06:17;101782.72;;;20.74;49.22
71772;BME280;59606;52.138;5.424;2023-06-14T07:08:46;101781.41;;;20.68;48.26
71772;BME280;59606;52.138;5.424;2023-06-14T07:11:14;101783.81;;;20.71;47.40
71772;BME280;59606;52.138;5.424;2023-06-14T07:13:41;101785.94;;;20.78;46.81
71772;BME280;59606;52.138;5.424;2023-06-14T07:16:08;101785.69;;;20.81;46.20
71772;BME280;59606;52.138;5.424;2023-06-14T07:18:34;101787.00;;;20.86;47.02
71772;BME280;59606;52.138;5.424;2023-06-14T07:21:01;101788.44;;;20.90;46.13
71772;BME280;59606;52.138;5.424;2023-06-14T07:23:28;101781.91;;;20.94;45.42
71772;BME280;59606;52.138;5.424;2023-06-14T07:25:54;101788.25;;;21.03;46.44
71772;BME280;59606;52.138;5.424;2023-06-14T07:28:21;101802.41;;;21.13;47.09
71772;BME280;59606;52.138;5.424;2023-06-14T07:30:47;101786.94;;;21.18;45.86
71772;BME280;59606;52.138;5.424;2023-06-14T07:33:14;101790.75;;;21.26;45.90
71772;BME280;59606;52.138;5.424;2023-06-14T07:35:41;101785.75;;;21.32;44.75
71772;BME280;59606;52.138;5.424;2023-06-14T07:38:08;101798.16;;;21.43;44.69
71772;BME280;59606;52.138;5.424;2023-06-14T07:40:34;101800.72;;;21.54;43.43
71772;BME280;59606;52.138;5.424;2023-06-14T07:43:01;101799.63;;;21.57;45.69
71772;BME280;59606;52.138;5.424;2023-06-14T07:45:28;101798.53;;;21.69;43.45
71772;BME280;59606;52.138;5.424;2023-06-14T07:47:55;101797.88;;;21.77;42.14
71772;BME280;59606;52.138;5.424;2023-06-14T07:50:21;101797.06;;;21.86;42.79
71772;BME280;59606;52.138;5.424;2023-06-14T07:52:48;101806.03;;;21.95;42.25
71772;BME280;59606;52.138;5.424;2023-06-14T07:55:15;101805.34;;;22.02;42.29
71772;BME280;59606;52.138;5.424;2023-06-14T07:57:42;101810.00;;;22.10;42.19
71772;BME280;59606;52.138;5.424;2023-06-14T08:00:09;101811.84;;;22.19;42.60
71772;BME280;59606;52.138;5.424;2023-06-14T08:02:38;101811.88;;;22.29;42.15
71772;BME280;59606;52.138;5.424;2023-06-14T08:05:05;101812.16;;;22.35;40.73
71772;BME280;59606;52.138;5.424;2023-06-14T08:07:31;101808.84;;;22.33;40.81
71772;BME280;59606;52.138;5.424;2023-06-14T08:09:58;101810.78;;;22.41;40.47
71772;BME280;59606;52.138;5.424;2023-06-14T08:12:24;101811.91;;;22.48;40.36
71772;BME280;59606;52.138;5.424;2023-06-14T08:14:51;101810.53;;;22.54;40.85
71772;BME280;59606;52.138;5.424;2023-06-14T08:17:38;101814.03;;;22.64;40.32
71772;BME280;59606;52.138;5.424;2023-06-14T08:20:05;101807.59;;;22.67;39.27
71772;BME280;59606;52.138;5.424;2023-06-14T08:22:32;101811.94;;;22.68;39.42
71772;BME280;59606;52.138;5.424;2023-06-14T08:25:03;101812.91;;;22.76;40.13
71772;BME280;59606;52.138;5.424;2023-06-14T08:27:30;101812.34;;;22.82;38.63
71772;BME280;59606;52.138;5.424;2023-06-14T08:29:56;101816.28;;;22.88;37.65
71772;BME280;59606;52.138;5.424;2023-06-14T08:32:23;101811.25;;;22.95;37.81
71772;BME280;59606;52.138;5.424;2023-06-14T08:34:51;101812.09;;;23.05;38.22
71772;BME280;59606;52.138;5.424;2023-06-14T08:37:31;101809.56;;;23.13;37.92
71772;BME280;59606;52.138;5.424;2023-06-14T08:39:57;101810.25;;;23.15;38.35
71772;BME280;59606;52.138;5.424;2023-06-14T08:42:24;101808.84;;;23.21;37.85
71772;BME280;59606;52.138;5.424;2023-06-14T08:44:57;101812.34;;;23.31;37.55
71772;BME280;59606;52.138;5.424;2023-06-14T08:47:25;101810.78;;;23.38;36.23
71772;BME280;59606;52.138;5.424;2023-06-14T08:49:54;101815.38;;;23.36;36.42
71772;BME280;59606;52.138;5.424;2023-06-14T08:52:24;101804.75;;;23.36;35.91
71772;BME280;59606;52.138;5.424;2023-06-14T08:54:56;101810.78;;;23.38;35.87
71772;BME280;59606;52.138;5.424;2023-06-14T08:57:24;101806.38;;;23.47;35.52
71772;BME280;59606;52.138;5.424;2023-06-14T08:59:52;101799.66;;;23.52;34.94
71772;BME280;59606;52.138;5.424;2023-06-14T09:02:19;101803.16;;;23.53;35.48
71772;BME280;59606;52.138;5.424;2023-06-14T09:04:48;101805.25;;;23.59;34.81
71772;BME280;59606;52.138;5.424;2023-06-14T09:07:18;101801.47;;;23.62;34.89
71772;BME280;59606;52.138;5.424;2023-06-14T09:09:44;101801.59;;;23.70;35.04
71772;BME280;59606;52.138;5.424;2023-06-14T09:12:31;101802.25;;;23.82;34.50
71772;BME280;59606;52.138;5.424;2023-06-14T09:14:58;101802.78;;;23.85;35.21
71772;BME280;59606;52.138;5.424;2023-06-14T09:17:24;101806.38;;;23.94;35.21
71772;BME280;59606;52.138;5.424;2023-06-14T09:19:51;101813.47;;;24.03;34.85
71772;BME280;59606;52.138;5.424;2023-06-14T09:22:18;101808.84;;;24.05;36.35
71772;BME280;59606;52.138;5.424;2023-06-14T09:24:44;101815.25;;;24.12;35.16
71772;BME280;59606;52.138;5.424;2023-06-14T09:27:15;101813.44;;;24.13;34.40
71772;BME280;59606;52.138;5.424;2023-06-14T09:29:41;101811.59;;;24.13;33.83
71772;BME280;59606;52.138;5.424;2023-06-14T09:32:08;101821.41;;;24.13;33.08
71772;BME280;59606;52.138;5.424;2023-06-14T09:34:35;101827.03;;;24.10;32.30
71772;BME280;59606;52.138;5.424;2023-06-14T09:37:02;101825.06;;;24.12;32.95
71772;BME280;59606;52.138;5.424;2023-06-14T09:39:29;101825.44;;;24.17;32.29
71772;BME280;59606;52.138;5.424;2023-06-14T09:41:56;101826.53;;;24.24;31.71
71772;BME280;59606;52.138;5.424;2023-06-14T09:44:25;101821.44;;;24.31;33.39
71772;BME280;59606;52.138;5.424;2023-06-14T09:46:56;101823.09;;;24.41;33.35
71772;BME280;59606;52.138;5.424;2023-06-14T09:49:22;101817.31;;;24.46;33.35
71772;BME280;59606;52.138;5.424;2023-06-14T09:51:50;101808.31;;;24.47;32.51
71772;BME280;59606;52.138;5.424;2023-06-14T09:54:22;101812.50;;;24.50;33.61
71772;BME280;59606;52.138;5.424;2023-06-14T09:56:51;101809.25;;;24.56;32.97
71772;BME280;59606;52.138;5.424;2023-06-14T09:59:19;101812.59;;;24.58;33.19
71772;BME280;59606;52.138;5.424;2023-06-14T10:01:48;101814.81;;;24.62;32.84
71772;BME280;59606;52.138;5.424;2023-06-14T10:04:19;101812.50;;;24.67;32.23
71772;BME280;59606;52.138;5.424;2023-06-14T10:06:50;101809.84;;;24.67;32.86
71772;BME280;59606;52.138;5.424;2023-06-14T10:09:17;101808.56;;;24.72;31.80
71772;BME280;59606;52.138;5.424;2023-06-14T10:11:45;101805.03;;;24.71;33.59
71772;BME280;59606;52.138;5.424;2023-06-14T10:14:12;101790.75;;;24.72;32.46
71772;BME280;59606;52.138;5.424;2023-06-14T10:16:49;101803.25;;;24.72;32.59
71772;BME280;59606;52.138;5.424;2023-06-14T10:19:23;101803.13;;;24.81;31.16
71772;BME280;59606;52.138;5.424;2023-06-14T10:24:37;101798.41;;;24.93;31.57
71772;BME280;59606;52.138;5.424;2023-06-14T10:27:07;101806.75;;;24.98;32.61
71772;BME280;59606;52.138;5.424;2023-06-14T10:30:02;101800.81;;;25.04;32.02
71772;BME280;59606;52.138;5.424;2023-06-14T10:32:29;101803.69;;;25.11;32.16
71772;BME280;59606;52.138;5.424;2023-06-14T10:34:57;101798.78;;;25.16;32.44
71772;BME280;59606;52.138;5.424;2023-06-14T10:37:24;101799.44;;;25.18;32.30
71772;BME280;59606;52.138;5.424;2023-06-14T10:39:51;101797.28;;;25.22;32.07
71772;BME280;59606;52.138;5.424;2023-06-14T10:42:18;101787.81;;;25.19;31.47
71772;BME280;59606;52.138;5.424;2023-06-14T10:44:49;101801.50;;;25.24;31.18
71772;BME280;59606;52.138;5.424;2023-06-14T10:47:35;101796.78;;;25.18;31.42
71772;BME280;59606;52.138;5.424;2023-06-14T10:50:06;101807.44;;;25.18;31.53
71772;BME280;59606;52.138;5.424;2023-06-14T10:52:43;101798.47;;;25.19;31.70
71772;BME280;59606;52.138;5.424;2023-06-14T10:55:16;101796.78;;;25.18;30.87
71772;BME280;59606;52.138;5.424;2023-06-14T10:57:50;101805.00;;;25.25;31.32
71772;BME280;59606;52.138;5.424;2023-06-14T11:00:28;101795.03;;;25.35;31.54
71772;BME280;59606;52.138;5.424;2023-06-14T11:05:56;101795.78;;;25.45;31.70
71772;BME280;59606;52.138;5.424;2023-06-14T11:08:51;101792.78;;;25.48;32.08
71772;BME280;59606;52.138;5.424;2023-06-14T11:11:24;101791.53;;;25.60;32.16
71772;BME280;59606;52.138;5.424;2023-06-14T11:13:56;101799.03;;;25.65;31.48
71772;BME280;59606;52.138;5.424;2023-06-14T11:16:25;101803.56;;;25.64;31.69
71772;BME280;59606;52.138;5.424;2023-06-14T11:18:52;101797.38;;;25.64;31.04
71772;BME280;59606;52.138;5.424;2023-06-14T11:21:19;101787.41;;;25.66;31.38
71772;BME280;59606;52.138;5.424;2023-06-14T11:23:52;101783.03;;;25.65;31.79
71772;BME280;59606;52.138;5.424;2023-06-14T11:26:28;101800.94;;;25.73;31.14
71772;BME280;59606;52.138;5.424;2023-06-14T11:29:00;101791.03;;;25.65;30.92
71772;BME280;59606;52.138;5.424;2023-06-14T11:31:27;101790.78;;;25.76;30.00
71772;BME280;59606;52.138;5.424;2023-06-14T11:33:59;101784.16;;;25.89;30.39
71772;BME280;59606;52.138;5.424;2023-06-14T11:36:27;101786.03;;;25.96;30.26
71772;BME280;59606;52.138;5.424;2023-06-14T11:39:00;101786.56;;;26.00;30.51
71772;BME280;59606;52.138;5.424;2023-06-14T11:41:42;101783.97;;;25.82;30.49
71772;BME280;59606;52.138;5.424;2023-06-14T11:44:09;101775.59;;;25.77;31.40
71772;BME280;59606;52.138;5.424;2023-06-14T11:46:36;101773.97;;;25.84;31.48
71772;BME280;59606;52.138;5.424;2023-06-14T11:49:03;101776.00;;;25.98;31.36
71772;BME280;59606;52.138;5.424;2023-06-14T11:51:34;101766.34;;;25.97;30.28
71772;BME280;59606;52.138;5.424;2023-06-14T11:54:02;101774.53;;;25.96;29.93
71772;BME280;59606;52.138;5.424;2023-06-14T11:56:30;101776.84;;;25.99;29.73
71772;BME280;59606;52.138;5.424;2023-06-14T11:58:59;101781.53;;;25.97;30.05
71772;BME280;59606;52.138;5.424;2023-06-14T12:01:26;101777.91;;;26.06;30.07
71772;BME280;59606;52.138;5.424;2023-06-14T12:03:54;101779.09;;;26.20;30.07
71772;BME280;59606;52.138;5.424;2023-06-14T12:06:28;101777.94;;;26.30;30.05
71772;BME280;59606;52.138;5.424;2023-06-14T12:08:58;101779.41;;;26.25;29.98
71772;BME280;59606;52.138;5.424;2023-06-14T12:11:32;101779.94;;;26.20;29.90
71772;BME280;59606;52.138;5.424;2023-06-14T12:13:59;101779.94;;;26.20;30.40
71772;BME280;59606;52.138;5.424;2023-06-14T12:16:31;101785.28;;;26.20;31.00
71772;BME280;59606;52.138;5.424;2023-06-14T12:19:16;101798.81;;;26.27;30.58
71772;BME280;59606;52.138;5.424;2023-06-14T12:21:46;101784.13;;;26.23;30.08
71772;BME280;59606;52.138;5.424;2023-06-14T12:24:17;101778.09;;;26.29;29.87
71772;BME280;59606;52.138;5.424;2023-06-14T12:26:44;101768.91;;;26.31;31.45
71772;BME280;59606;52.138;5.424;2023-06-14T12:29:12;101779.28;;;26.34;30.89
71772;BME280;59606;52.138;5.424;2023-06-14T12:31:39;101791.16;;;26.40;31.60
71772;BME280;59606;52.138;5.424;2023-06-14T12:34:07;101783.16;;;26.48;30.72
71772;BME280;59606;52.138;5.424;2023-06-14T12:36:33;101780.00;;;26.53;31.76
71772;BME280;59606;52.138;5.424;2023-06-14T12:39:02;101783.84;;;26.59;29.89
71772;BME280;59606;52.138;5.424;2023-06-14T12:41:28;101779.16;;;26.61;30.14
71772;BME280;59606;52.138;5.424;2023-06-14T12:43:55;101782.69;;;26.77;30.36
71772;BME280;59606;52.138;5.424;2023-06-14T12:46:24;101775.34;;;26.79;29.75
71772;BME280;59606;52.138;5.424;2023-06-14T12:48:50;101779.50;;;26.82;29.09
71772;BME280;59606;52.138;5.424;2023-06-14T12:51:17;101778.31;;;26.85;29.14
71772;BME280;59606;52.138;5.424;2023-06-14T12:53:43;101774.66;;;26.86;28.86
71772;BME280;59606;52.138;5.424;2023-06-14T12:56:10;101781.16;;;26.91;28.80
71772;BME280;59606;52.138;5.424;2023-06-14T12:58:37;101782.84;;;26.84;28.80
71772;BME280;59606;52.138;5.424;2023-06-14T13:01:03;101784.34;;;26.78;28.37
71772;BME280;59606;52.138;5.424;2023-06-14T13:03:30;101795.06;;;26.70;28.33
71772;BME280;59606;52.138;5.424;2023-06-14T13:05:57;101785.00;;;26.72;27.79
71772;BME280;59606;52.138;5.424;2023-06-14T13:08:24;101786.69;;;26.73;27.65